createdAt,value
2023-05-05T00:00:37.164Z,47.55
2023-05-05T00:03:06.371Z,49.09
2023-05-05T00:05:35.002Z,48.38
2023-05-05T00:08:06.817Z,47.79
2023-05-05T00:10:35.796Z,48.36
2023-05-05T00:13:07.088Z,47.53
2023-05-05T00:15:36.504Z,48.69
2023-05-05T00:18:05.732Z,49.15
2023-05-05T00:23:03.638Z,51.33
2023-05-05T00:25:37.153Z,50.43
2023-05-05T00:28:07.111Z,49.31
2023-05-05T00:30:36.327Z,46.43
2023-05-05T00:33:06.342Z,49.67
2023-05-05T00:35:36.330Z,47.40
2023-05-05T00:38:06.942Z,49.02
2023-05-05T00:40:38.230Z,48.40
2023-05-05T00:43:08.729Z,49.13
2023-05-05T00:45:41.926Z,49.34
2023-05-05T00:48:10.842Z,49.17
2023-05-05T00:50:40.193Z,48.46
2023-05-05T00:53:09.339Z,48.70
2023-05-05T00:55:41.833Z,49.40
2023-05-05T00:58:11.254Z,49.22
2023-05-05T01:00:43.313Z,49.92
2023-05-05T01:03:15.586Z,50.28
2023-05-05T01:05:57.549Z,50.03
2023-05-05T01:08:44.904Z,49.99
2023-05-05T01:11:27.424Z,49.47
2023-05-05T01:14:16.322Z,50.45
2023-05-05T01:16:57.722Z,51.46
2023-05-05T01:20:08.297Z,51.11
2023-05-05T01:22:43.133Z,50.30
2023-05-05T01:26:07.614Z,51.91
2023-05-05T01:29:09.429Z,51.25
2023-05-05T01:32:03.304Z,50.33
2023-05-05T01:34:41.244Z,50.93
2023-05-05T01:37:15.208Z,50.79
2023-05-05T01:39:46.144Z,50.18
2023-05-05T01:42:15.460Z,51.09
2023-05-05T01:44:46.642Z,51.05
2023-05-05T01:47:20.377Z,51.16
2023-05-05T01:49:52.155Z,50.95
2023-05-05T01:52:25.226Z,51.12
2023-05-05T01:54:57.519Z,51.28
2023-05-05T01:57:31.739Z,51.39
2023-05-05T02:00:07.282Z,52.93
2023-05-05T02:02:40.359Z,52.63
2023-05-05T02:05:12.100Z,52.04
2023-05-05T02:07:41.518Z,51.92
2023-05-05T02:10:14.771Z,51.93
2023-05-05T02:12:46.577Z,52.07
2023-05-05T02:15:17.776Z,52.33
2023-05-05T02:17:49.687Z,52.35
2023-05-05T02:20:21.491Z,52.32
2023-05-05T02:22:51.005Z,52.24
2023-05-05T02:25:20.001Z,52.51
2023-05-05T02:27:51.582Z,52.73
2023-05-05T02:30:22.435Z,52.91
2023-05-05T02:33:01.836Z,52.69
2023-05-05T02:35:38.108Z,52.55
2023-05-05T02:38:17.450Z,52.88
2023-05-05T02:40:49.815Z,52.54
2023-05-05T02:43:23.531Z,52.62
2023-05-05T02:45:52.996Z,52.65
2023-05-05T02:48:22.915Z,52.79
2023-05-05T02:50:51.865Z,52.72
2023-05-05T02:53:26.007Z,52.92
2023-05-05T02:56:00.824Z,53.40
2023-05-05T02:58:36.125Z,53.86
2023-05-05T03:01:21.426Z,53.43
2023-05-05T03:04:01.776Z,54.24
2023-05-05T03:06:33.719Z,54.02
2023-05-05T03:09:11.264Z,54.11
2023-05-05T03:11:48.157Z,54.32
2023-05-05T03:14:21.561Z,54.22
2023-05-05T03:16:53.523Z,54.15
2023-05-05T03:19:25.081Z,54.25
2023-05-05T03:21:54.204Z,54.21
2023-05-05T03:24:23.529Z,54.44
2023-05-05T03:26:53.513Z,54.69
2023-05-05T03:29:22.299Z,55.19
2023-05-05T03:31:51.184Z,55.15
2023-05-05T03:34:20.178Z,55.11
2023-05-05T03:36:55.660Z,55.58
2023-05-05T03:39:24.153Z,55.63
2023-05-05T03:41:54.562Z,55.63
2023-05-05T03:44:23.714Z,55.73
2023-05-05T03:46:52.826Z,55.56
2023-05-05T03:49:21.569Z,55.29
2023-05-05T03:51:51.563Z,55.43
2023-05-05T03:54:20.574Z,55.56
2023-05-05T03:56:49.295Z,57.59
2023-05-05T03:59:20.344Z,56.17
2023-05-05T04:01:50.286Z,56.03
2023-05-05T04:04:19.318Z,56.14
2023-05-05T04:06:47.812Z,55.98
2023-05-05T04:09:18.811Z,56.25
2023-05-05T04:11:47.283Z,56.89
2023-05-05T04:14:15.871Z,57.04
2023-05-05T04:16:44.749Z,56.70
2023-05-05T04:19:14.005Z,56.47
2023-05-05T04:21:44.147Z,56.86
2023-05-05T04:24:12.908Z,56.66
2023-05-05T04:26:42.791Z,56.45
2023-05-05T04:29:11.625Z,56.49
2023-05-05T04:31:40.653Z,56.36
2023-05-05T04:34:10.625Z,56.83
2023-05-05T04:36:39.280Z,56.58
2023-05-05T04:39:08.404Z,56.23
2023-05-05T04:41:37.447Z,56.03
2023-05-05T04:44:08.442Z,56.32
2023-05-05T04:46:40.431Z,56.63
2023-05-05T04:49:09.397Z,56.90
2023-05-05T04:51:42.042Z,56.51
2023-05-05T04:54:11.179Z,55.82
2023-05-05T04:56:40.730Z,56.26
2023-05-05T04:59:10.985Z,56.13
2023-05-05T05:01:39.982Z,55.72
2023-05-05T05:04:10.593Z,55.24
2023-05-05T05:06:40.653Z,54.38
2023-05-05T05:09:12.707Z,54.58
2023-05-05T05:11:42.809Z,53.48
2023-05-05T05:14:12.783Z,51.71
2023-05-05T05:16:42.093Z,51.84
2023-05-05T05:19:12.009Z,53.44
2023-05-05T05:21:40.806Z,53.55
2023-05-05T05:24:11.282Z,52.94
2023-05-05T05:26:40.448Z,52.68
2023-05-05T05:29:09.255Z,54.78
2023-05-05T05:31:40.856Z,54.19
2023-05-05T05:34:12.613Z,53.00
2023-05-05T05:36:41.888Z,51.85
2023-05-05T05:39:10.889Z,50.78
2023-05-05T05:41:40.022Z,50.28
2023-05-05T05:44:09.874Z,49.95
2023-05-05T05:46:40.715Z,51.51
2023-05-05T05:49:09.738Z,49.79
2023-05-05T05:51:38.433Z,48.46
2023-05-05T05:54:07.277Z,46.22
2023-05-05T05:56:36.896Z,45.04
2023-05-05T05:59:08.463Z,45.29
2023-05-05T06:01:37.378Z,46.83
2023-05-05T06:04:08.111Z,44.76
2023-05-05T06:06:38.667Z,48.11
2023-05-05T06:09:07.749Z,53.37
2023-05-05T06:11:37.273Z,56.28
2023-05-05T06:14:08.236Z,50.65
2023-05-05T06:16:36.925Z,48.77
2023-05-05T06:19:09.853Z,47.22
2023-05-05T06:21:38.851Z,48.30
2023-05-05T06:24:08.762Z,48.25
2023-05-05T06:26:37.455Z,50.68
2023-05-05T06:29:07.421Z,44.27
2023-05-05T06:31:36.299Z,44.22
2023-05-05T06:34:06.550Z,46.84
2023-05-05T06:36:35.317Z,45.63
2023-05-05T06:39:14.580Z,43.01
2023-05-05T06:41:44.692Z,42.69
2023-05-05T06:44:14.518Z,49.12
2023-05-05T06:46:45.144Z,43.55
2023-05-05T06:49:15.300Z,42.96
2023-05-05T06:51:43.963Z,48.15
2023-05-05T06:54:12.667Z,42.86
2023-05-05T06:56:41.854Z,43.00
2023-05-05T06:59:10.879Z,44.22
2023-05-05T07:01:39.332Z,43.97
2023-05-05T07:04:08.388Z,45.81
2023-05-05T07:06:38.764Z,44.92
2023-05-05T07:09:07.380Z,47.05
2023-05-05T07:11:36.576Z,46.14
2023-05-05T07:14:05.049Z,47.83
2023-05-05T07:16:37.251Z,48.70
2023-05-05T07:19:07.706Z,47.69
2023-05-05T07:21:39.978Z,50.32
2023-05-05T07:24:09.392Z,50.00
2023-05-05T07:26:37.986Z,49.56
2023-05-05T07:29:07.299Z,49.33
2023-05-05T07:31:37.579Z,47.99
2023-05-05T07:34:06.362Z,49.35
2023-05-05T07:36:36.378Z,53.63
2023-05-05T07:39:06.789Z,55.38
2023-05-05T07:41:35.947Z,51.48
2023-05-05T07:44:04.697Z,54.22
2023-05-05T07:46:35.383Z,54.52
2023-05-05T07:49:04.280Z,54.16
2023-05-05T07:51:34.958Z,50.17
2023-05-05T07:54:09.531Z,48.94
2023-05-05T07:56:38.470Z,53.46
2023-05-05T07:59:07.272Z,50.00
2023-05-05T08:01:35.962Z,47.18
2023-05-05T08:04:04.676Z,45.61
2023-05-05T08:06:33.702Z,47.52
2023-05-05T08:09:06.166Z,48.22
2023-05-05T08:11:40.730Z,47.00
2023-05-05T08:14:11.429Z,48.66
2023-05-05T08:16:40.169Z,46.90
2023-05-05T08:19:28.562Z,46.64
2023-05-05T08:22:00.012Z,48.92
2023-05-05T08:24:29.917Z,55.37
2023-05-05T08:27:01.142Z,50.26
2023-05-05T08:29:31.270Z,46.55
2023-05-05T08:32:00.885Z,46.17
2023-05-05T08:34:29.685Z,45.08
2023-05-05T08:36:58.544Z,46.90
2023-05-05T08:39:27.618Z,45.05
2023-05-05T08:41:56.025Z,51.80
2023-05-05T08:44:26.997Z,48.52
2023-05-05T08:46:57.791Z,45.62
2023-05-05T08:49:28.927Z,51.77
2023-05-05T08:52:00.968Z,47.92
2023-05-05T08:54:35.758Z,45.98
2023-05-05T08:57:09.494Z,43.68
2023-05-05T08:59:42.898Z,45.68
2023-05-05T09:02:13.254Z,47.42
2023-05-05T09:04:49.378Z,47.18
2023-05-05T09:07:18.753Z,45.32
2023-05-05T09:09:48.441Z,47.24
2023-05-05T09:12:18.810Z,45.67
2023-05-05T09:14:49.407Z,47.28
2023-05-05T09:17:25.755Z,48.74
2023-05-05T09:20:05.746Z,44.43
2023-05-05T09:22:39.379Z,45.48
2023-05-05T09:25:10.462Z,46.00
2023-05-05T09:27:41.563Z,47.95
2023-05-05T09:30:16.794Z,46.33
2023-05-05T09:32:47.668Z,47.88
2023-05-05T09:35:18.060Z,45.68
2023-05-05T09:37:47.889Z,43.62
2023-05-05T09:40:22.061Z,41.96
2023-05-05T09:43:01.519Z,43.96
2023-05-05T09:45:33.655Z,47.88
2023-05-05T09:48:02.561Z,48.96
2023-05-05T09:50:32.787Z,46.16
2023-05-05T09:53:04.314Z,46.92
2023-05-05T09:55:33.659Z,49.98
2023-05-05T09:58:21.531Z,46.65
2023-05-05T10:00:52.375Z,47.03
2023-05-05T10:03:25.180Z,47.27
2023-05-05T10:05:57.035Z,49.03
2023-05-05T10:08:28.752Z,46.17
2023-05-05T10:11:00.985Z,43.81
2023-05-05T10:13:30.418Z,44.13
2023-05-05T10:16:03.545Z,43.46
2023-05-05T10:18:33.880Z,44.57
2023-05-05T10:21:04.250Z,45.81
2023-05-05T10:23:41.769Z,47.10
2023-05-05T10:26:14.702Z,46.74
2023-05-05T10:28:49.665Z,46.80
2023-05-05T10:31:38.491Z,44.54
2023-05-05T10:34:11.985Z,45.55
2023-05-05T10:36:43.447Z,46.79
2023-05-05T10:39:12.808Z,52.54
2023-05-05T10:41:41.505Z,47.66
2023-05-05T10:44:11.884Z,50.41
2023-05-05T10:46:42.754Z,50.49
2023-05-05T10:49:24.479Z,48.65
2023-05-05T10:52:05.641Z,48.33
2023-05-05T10:54:40.825Z,53.20
2023-05-05T10:57:14.873Z,53.02
2023-05-05T10:59:45.520Z,52.15
2023-05-05T11:02:27.521Z,51.83
2023-05-05T11:05:11.046Z,52.63
2023-05-05T11:07:42.002Z,51.55
2023-05-05T11:10:13.030Z,50.53
2023-05-05T11:13:21.176Z,49.49
2023-05-05T11:15:52.678Z,53.29
2023-05-05T11:18:37.440Z,54.26
2023-05-05T11:21:18.211Z,53.53
2023-05-05T11:23:50.052Z,52.59
2023-05-05T11:26:51.811Z,52.19
2023-05-05T11:29:20.619Z,53.11
2023-05-05T11:32:13.981Z,55.36
2023-05-05T11:34:51.942Z,53.99
2023-05-05T11:37:25.226Z,54.46
2023-05-05T11:40:05.117Z,55.21
2023-05-05T11:42:34.139Z,58.42
2023-05-05T11:45:20.540Z,58.52
2023-05-05T11:47:49.628Z,67.90
2023-05-05T11:50:23.537Z,78.95
2023-05-05T11:52:52.429Z,100.00
2023-05-05T11:55:23.399Z,100.00
2023-05-05T11:57:53.429Z,88.54
2023-05-05T12:00:34.452Z,87.78
2023-05-05T12:03:05.956Z,89.54
2023-05-05T12:05:37.086Z,89.72
2023-05-05T12:08:06.600Z,84.12
2023-05-05T12:10:35.108Z,78.74
2023-05-05T12:13:03.851Z,73.31
2023-05-05T12:15:34.242Z,78.73
2023-05-05T12:18:03.643Z,80.57
2023-05-05T12:20:36.742Z,73.37
2023-05-05T12:23:06.205Z,71.48
2023-05-05T12:25:40.314Z,69.39
2023-05-05T12:28:10.889Z,69.79
2023-05-05T12:30:39.466Z,66.25
2023-05-05T12:33:10.020Z,64.31
2023-05-05T12:35:41.567Z,63.81
2023-05-05T12:38:18.569Z,63.28
2023-05-05T12:40:50.047Z,62.91
2023-05-05T12:43:31.515Z,59.35
2023-05-05T12:46:09.811Z,58.72
2023-05-05T12:48:40.017Z,57.05
2023-05-05T12:51:18.885Z,54.80
2023-05-05T12:53:50.252Z,55.72
2023-05-05T12:56:34.274Z,56.73
2023-05-05T12:59:03.977Z,59.61
2023-05-05T13:01:32.785Z,57.32
2023-05-05T13:04:15.387Z,62.31
2023-05-05T13:06:47.086Z,58.42
2023-05-05T13:09:25.937Z,61.91
2023-05-05T13:11:54.886Z,57.86
2023-05-05T13:14:24.497Z,55.87
2023-05-05T13:16:54.293Z,58.81
2023-05-05T13:19:25.017Z,59.95
2023-05-05T13:21:55.564Z,63.22
2023-05-05T13:24:38.068Z,66.41
2023-05-05T13:27:12.636Z,64.81
2023-05-05T13:29:41.807Z,63.45
2023-05-05T13:32:10.280Z,66.02
2023-05-05T13:34:39.676Z,59.42
2023-05-05T13:37:09.854Z,61.09
2023-05-05T13:39:39.361Z,64.71
2023-05-05T13:42:08.080Z,64.93
2023-05-05T13:44:37.009Z,66.50
2023-05-05T13:47:07.917Z,66.24
2023-05-05T13:49:36.999Z,68.20
2023-05-05T13:52:06.079Z,68.64
2023-05-05T13:57:37.558Z,65.99
2023-05-05T14:00:13.971Z,65.56
2023-05-05T14:02:43.170Z,62.38
2023-05-05T14:05:16.478Z,63.94
2023-05-05T14:07:45.908Z,64.44
2023-05-05T14:10:17.562Z,62.96
2023-05-05T14:12:46.731Z,61.91
2023-05-05T14:15:16.072Z,62.32
2023-05-05T14:17:44.790Z,63.64
2023-05-05T14:20:16.027Z,61.29
2023-05-05T14:22:46.253Z,60.07
2023-05-05T14:25:17.914Z,61.38
2023-05-05T14:27:48.937Z,60.25
2023-05-05T14:30:19.995Z,61.41
2023-05-05T14:32:49.435Z,63.37
2023-05-05T14:35:20.914Z,72.10
2023-05-05T14:37:50.206Z,73.87
2023-05-05T14:40:23.213Z,79.17
2023-05-05T14:42:52.036Z,79.98
2023-05-05T14:45:21.519Z,77.92
2023-05-05T14:47:53.731Z,72.86
2023-05-05T14:50:23.966Z,74.71
2023-05-05T14:52:59.137Z,68.87
2023-05-05T14:55:32.221Z,77.44
2023-05-05T14:58:01.210Z,70.53
2023-05-05T15:00:29.825Z,69.65
2023-05-05T15:02:59.899Z,70.36
2023-05-05T15:05:31.337Z,68.82
2023-05-05T15:08:01.488Z,75.71
2023-05-05T15:10:43.941Z,78.05
2023-05-05T15:13:13.576Z,73.71
2023-05-05T15:15:42.809Z,69.14
2023-05-05T15:18:11.813Z,66.95
2023-05-05T15:20:41.325Z,81.20
2023-05-05T15:23:12.985Z,76.79
2023-05-05T15:25:44.924Z,69.81
2023-05-05T15:28:18.964Z,74.36
2023-05-05T15:31:07.493Z,75.04
2023-05-05T15:33:35.922Z,85.56
2023-05-05T15:36:04.386Z,88.11
2023-05-05T15:38:32.586Z,86.04
2023-05-05T15:41:02.164Z,81.65
2023-05-05T15:43:30.512Z,81.64
2023-05-05T15:45:58.802Z,86.08
2023-05-05T15:48:26.990Z,92.43
2023-05-05T15:50:55.255Z,82.39
2023-05-05T15:53:23.504Z,81.69
2023-05-05T15:55:51.803Z,74.75
2023-05-05T15:58:21.353Z,73.28
2023-05-05T16:00:49.664Z,76.94
2023-05-05T16:03:18.147Z,84.81
2023-05-05T16:05:47.180Z,81.90
2023-05-05T16:08:15.441Z,81.33
2023-05-05T16:10:43.676Z,75.74
2023-05-05T16:13:11.935Z,72.63
2023-05-05T16:15:41.562Z,71.82
2023-05-05T16:18:09.809Z,69.86
2023-05-05T16:20:38.048Z,67.45
2023-05-05T16:23:06.862Z,71.66
2023-05-05T16:25:35.100Z,71.46
2023-05-05T16:28:03.323Z,73.47
2023-05-05T16:30:31.678Z,75.34
2023-05-05T16:33:01.338Z,70.95
2023-05-05T16:35:29.594Z,72.24
2023-05-05T16:37:57.832Z,71.42
2023-05-05T16:40:26.092Z,69.22
2023-05-05T16:42:54.324Z,67.77
2023-05-05T16:45:22.604Z,68.87
2023-05-05T16:47:51.177Z,73.26
2023-05-05T16:50:21.063Z,71.31
2023-05-05T16:52:49.458Z,69.17
2023-05-05T16:55:17.957Z,67.30
2023-05-05T16:57:47.216Z,68.52
2023-05-05T17:00:16.408Z,72.24
2023-05-05T17:02:44.658Z,72.83
2023-05-05T17:05:12.965Z,71.38
2023-05-05T17:07:42.774Z,69.11
2023-05-05T17:10:11.954Z,71.22
2023-05-05T17:12:40.180Z,71.65
2023-05-05T17:15:09.974Z,70.61
2023-05-05T17:17:38.782Z,71.02
2023-05-05T17:20:09.684Z,70.06
2023-05-05T17:22:38.077Z,68.43
2023-05-05T17:25:09.074Z,67.50
2023-05-05T17:27:37.503Z,68.14
2023-05-05T17:30:07.281Z,67.80
2023-05-05T17:32:35.656Z,66.19
2023-05-05T17:35:04.076Z,68.39
2023-05-05T17:37:32.392Z,68.36
2023-05-05T17:40:00.684Z,68.13
2023-05-05T17:42:33.075Z,67.75
2023-05-05T17:45:01.486Z,67.63
2023-05-05T17:47:30.072Z,67.73
2023-05-05T17:49:58.938Z,67.69
2023-05-05T17:52:27.409Z,67.67
2023-05-05T17:54:55.714Z,67.21
2023-05-05T17:57:23.962Z,67.31
2023-05-05T17:59:53.772Z,67.49
2023-05-05T18:02:22.177Z,68.12
2023-05-05T18:04:50.462Z,69.31
2023-05-05T18:07:18.693Z,69.80
2023-05-05T18:09:46.936Z,70.23
2023-05-05T18:12:15.154Z,70.89
2023-05-05T18:14:43.353Z,71.09
2023-05-05T18:17:13.012Z,71.02
2023-05-05T18:19:46.164Z,71.37
2023-05-05T18:22:16.018Z,72.29
2023-05-05T18:24:44.328Z,72.48
2023-05-05T18:27:12.886Z,72.87
2023-05-05T18:29:41.189Z,71.92
2023-05-05T18:32:09.416Z,72.07
2023-05-05T18:34:39.014Z,71.51
2023-05-05T18:37:07.284Z,71.37
2023-05-05T18:39:35.696Z,70.51
2023-05-05T18:42:04.203Z,70.46
2023-05-05T18:44:34.800Z,69.91
2023-05-05T18:47:03.182Z,70.20
2023-05-05T18:49:31.829Z,70.92
2023-05-05T18:52:01.432Z,71.80
2023-05-05T18:54:29.731Z,71.93
2023-05-05T18:56:59.389Z,71.98
2023-05-05T18:59:27.739Z,71.15
2023-05-05T19:01:55.997Z,71.30
2023-05-05T19:04:31.450Z,72.46
2023-05-05T19:07:01.534Z,72.61
2023-05-05T19:09:29.794Z,72.11
2023-05-05T19:11:58.162Z,72.93
2023-05-05T19:14:26.734Z,72.92
2023-05-05T19:16:56.273Z,72.54
2023-05-05T19:19:24.681Z,73.86
2023-05-05T19:21:52.899Z,72.95
2023-05-05T19:24:22.486Z,72.48
2023-05-05T19:26:50.768Z,72.53
2023-05-05T19:29:19.090Z,72.61
2023-05-05T19:31:47.369Z,72.58
2023-05-05T19:34:15.739Z,72.50
2023-05-05T19:36:43.986Z,72.78
2023-05-05T19:39:13.696Z,72.56
2023-05-05T19:41:44.900Z,72.80
2023-05-05T19:44:13.184Z,72.26
2023-05-05T19:46:41.440Z,72.50
2023-05-05T19:49:09.780Z,72.42
2023-05-05T19:51:37.984Z,72.04
2023-05-05T19:54:06.489Z,71.85
2023-05-05T19:56:34.701Z,71.86
2023-05-05T19:59:06.282Z,71.97
2023-05-05T20:01:34.916Z,72.05
2023-05-05T20:04:04.354Z,72.74
2023-05-05T20:06:33.052Z,72.35
2023-05-05T20:09:02.053Z,72.97
2023-05-05T20:11:30.403Z,72.73
2023-05-05T20:13:59.334Z,73.14
2023-05-05T20:16:28.986Z,72.96
2023-05-05T20:18:57.432Z,73.31
2023-05-05T20:21:26.768Z,72.81
2023-05-05T20:23:55.523Z,73.22
2023-05-05T20:26:24.451Z,72.82
2023-05-05T20:28:52.834Z,72.74
2023-05-05T20:31:21.274Z,72.86
2023-05-05T20:33:50.965Z,72.77
2023-05-05T20:36:19.616Z,73.12
2023-05-05T20:38:47.826Z,73.00
2023-05-05T20:41:16.208Z,73.22
2023-05-05T20:43:44.629Z,73.49
2023-05-05T20:46:13.390Z,73.13
2023-05-05T20:48:42.955Z,73.10
2023-05-05T20:51:12.735Z,73.15
2023-05-05T20:53:41.237Z,73.06
2023-05-05T20:56:09.472Z,73.07
2023-05-05T20:58:37.711Z,72.88
2023-05-05T21:01:06.209Z,72.87
2023-05-05T21:03:34.552Z,73.31
2023-05-05T21:06:03.485Z,73.25
2023-05-05T21:08:33.080Z,73.36
2023-05-05T21:11:01.595Z,73.44
2023-05-05T21:13:30.548Z,73.43
2023-05-05T21:15:58.803Z,73.11
2023-05-05T21:18:27.703Z,73.16
2023-05-05T21:20:56.279Z,73.03
2023-05-05T21:23:24.518Z,73.21
2023-05-05T21:25:54.144Z,73.40
2023-05-05T21:28:22.401Z,73.18
2023-05-05T21:31:10.396Z,73.02
2023-05-05T21:33:39.696Z,73.26
2023-05-05T21:36:08.213Z,73.02
2023-05-05T21:38:36.494Z,73.49
2023-05-05T21:41:06.383Z,73.32
2023-05-05T21:43:34.615Z,72.67
2023-05-05T21:46:04.579Z,72.75
2023-05-05T21:48:33.137Z,72.68
2023-05-05T21:51:01.381Z,72.56
2023-05-05T21:53:29.591Z,72.78
2023-05-05T21:55:57.857Z,72.76
2023-05-05T21:58:27.617Z,72.82
2023-05-05T22:00:55.920Z,72.47
2023-05-05T22:03:24.326Z,72.24
2023-05-05T22:05:52.892Z,72.28
2023-05-05T22:10:56.684Z,72.62
2023-05-05T22:13:26.379Z,72.61
2023-05-05T22:15:54.749Z,72.81
2023-05-05T22:18:23.105Z,72.80
2023-05-05T22:20:52.633Z,72.90
2023-05-05T22:23:21.007Z,72.92
2023-05-05T22:25:49.275Z,73.09
2023-05-05T22:28:17.628Z,72.69
2023-05-05T22:30:47.221Z,72.72
2023-05-05T22:33:15.520Z,72.86
2023-05-05T22:35:43.955Z,72.96
2023-05-05T22:38:12.238Z,72.40
2023-05-05T22:40:40.617Z,72.69
2023-05-05T22:43:08.907Z,72.88
2023-05-05T22:45:37.212Z,72.06
2023-05-05T22:48:07.620Z,72.34
2023-05-05T22:50:36.781Z,72.81
2023-05-05T22:53:05.087Z,72.73
2023-05-05T22:55:33.327Z,73.23
2023-05-05T22:58:01.643Z,73.16
2023-05-05T23:00:30.252Z,73.55
2023-05-05T23:02:58.726Z,73.66
2023-05-05T23:05:28.598Z,73.33
2023-05-05T23:07:59.916Z,73.32
2023-05-05T23:10:28.713Z,73.15
2023-05-05T23:12:56.962Z,73.18
2023-05-05T23:15:25.268Z,73.67
2023-05-05T23:17:53.541Z,73.04
2023-05-05T23:20:22.071Z,73.18
2023-05-05T23:22:51.661Z,73.32
2023-05-05T23:25:20.369Z,73.23
2023-05-05T23:27:48.915Z,72.54
2023-05-05T23:30:17.571Z,72.44
2023-05-05T23:32:46.082Z,72.86
2023-05-05T23:35:14.547Z,72.85
2023-05-05T23:37:42.829Z,73.04
2023-05-05T23:40:12.853Z,72.62
2023-05-05T23:42:41.117Z,73.19
2023-05-05T23:45:11.345Z,72.74
2023-05-05T23:47:40.032Z,73.07
2023-05-05T23:50:10.321Z,73.75
2023-05-05T23:52:38.584Z,73.17
2023-05-05T23:55:08.662Z,73.50
2023-05-05T23:57:38.703Z,74.15
